Grifon 5 #- — UGMI — position and weather

sailwx.info

Track history (hours):
 
Tides and Currents Weather Stations Pressure Air Temp Water Temp Dewpoint Dewpoint Depression Visibility Wind Speed Wind Dir Waves Ship Positions

Grifon 5 #-

Last reported at 2017-Mar-27 10:33 UTC. Time now 2017-Mar-27 10:45 UTC.
Position N 59°54' E 030°13'.

Length 25 m.

Type: Ship. MMSI: 273311070.

Date/timePositionNaut miles runAvg speedWind from/ knotsBaromVisibWave heightAir tempDewpointWater temp
2017-Mar-27 10:33N 59°54' E 030°13'1 1.2
2017-Mar-27 09:33N 59°53' E 030°14'0 0.0
2017-Mar-27 08:33N 59°53' E 030°14'1 1.0
2017-Mar-27 07:33N 59°53' E 030°12'0 0.4
2017-Mar-27 06:33N 59°53' E 030°12'1 1.3
2017-Mar-27 05:32N 59°53' E 030°14'0 0.0
2017-Mar-27 04:33N 59°53' E 030°14'0 0.0
2017-Mar-27 03:33N 59°53' E 030°14'0 0.0
2017-Mar-27 02:32N 59°53' E 030°14'0 0.0
2017-Mar-27 01:33N 59°53' E 030°14'0 0.0
2017-Mar-27 00:33N 59°53' E 030°14'0 0.0
2017-Mar-26 23:33N 59°53' E 030°14'1 0.9
2017-Mar-26 22:33N 59°53' E 030°13'0 0.4
2017-Mar-26 21:33N 59°53' E 030°12'1 1.1
2017-Mar-26 20:33N 59°53' E 030°14'0 0.0
2017-Mar-26 19:33N 59°53' E 030°14'0 0.0
2017-Mar-26 18:33N 59°53' E 030°14'0 0.0
2017-Mar-26 17:33N 59°53' E 030°14'0 0.0
2017-Mar-26 16:33N 59°53' E 030°14'0 0.0
2017-Mar-26 15:33N 59°53' E 030°14'0 0.0
2017-Mar-26 14:33N 59°53' E 030°14'0 0.0
2017-Mar-26 13:33N 59°53' E 030°14'0 0.0
2017-Mar-26 12:33N 59°53' E 030°14'0 0.0
2017-Mar-26 11:33N 59°53' E 030°14'0 0.0
2017-Mar-26 10:33N 59°53' E 030°14'0 0.0
2017-Mar-26 09:33N 59°53' E 030°14'0 0.0
2017-Mar-26 08:33N 59°53' E 030°14'1 1.3
2017-Mar-26 07:33N 59°53' E 030°12'1 0.6
2017-Mar-26 06:33N 59°53' E 030°11'2 1.6
2017-Mar-26 05:33N 59°53' E 030°14'0 0.0
2017-Mar-26 04:33N 59°53' E 030°14'0 0.0
2017-Mar-26 03:34N 59°53' E 030°14'0 0.0
2017-Mar-26 02:33N 59°53' E 030°14'1 1.4
2017-Mar-26 01:34N 59°53' E 030°11'1 1.4
2017-Mar-26 00:33N 59°53' E 030°14'0 0.0
2017-Mar-25 23:33N 59°53' E 030°14'0 0.0
2017-Mar-25 22:33N 59°53' E 030°14'1 1.0
2017-Mar-25 21:33N 59°53' E 030°13'1 1.0
2017-Mar-25 20:33N 59°52' E 030°12'1 1.0
2017-Mar-25 19:33N 59°53' E 030°14'0 0.0
2017-Mar-25 18:33N 59°53' E 030°14'0 0.0
2017-Mar-25 17:33N 59°53' E 030°14'0 0.0
2017-Mar-25 16:33N 59°53' E 030°14'0 0.0
2017-Mar-25 15:33N 59°53' E 030°14'0 0.0
2017-Mar-25 14:33N 59°53' E 030°14'0 0.0
2017-Mar-25 13:33N 59°53' E 030°14'0 0.0
2017-Mar-25 12:33N 59°53' E 030°14'0 0.0
2017-Mar-25 11:33N 59°53' E 030°14'2 1.5
2017-Mar-25 10:34N 59°53' E 030°11'1 0.6
2017-Mar-25 09:34N 59°52' E 030°12'1 0.9
2017-Mar-25 08:33N 59°53' E 030°11'2 1.6
2017-Mar-25 07:34N 59°53' E 030°14'0 0.0
2017-Mar-25 06:33N 59°53' E 030°14'0 0.0
2017-Mar-25 05:33N 59°53' E 030°14'0 0.0
2017-Mar-25 04:33N 59°53' E 030°14'0 0.0
2017-Mar-25 03:33N 59°53' E 030°14'0 0.0
2017-Mar-25 02:33N 59°53' E 030°14'0 0.0
2017-Mar-25 01:33N 59°53' E 030°14'0 0.0
2017-Mar-25 00:33N 59°53' E 030°14'0 0.0
2017-Mar-24 23:33N 59°53' E 030°14'0 0.1
2017-Mar-24 22:33N 59°53' E 030°14'1 1.2
2017-Mar-24 21:33N 59°52' E 030°12'1 1.3
2017-Mar-24 20:33N 59°53' E 030°14'0 0.0
2017-Mar-24 19:33N 59°53' E 030°14'0 0.0
2017-Mar-24 18:33N 59°53' E 030°14'0 0.0
2017-Mar-24 17:33N 59°53' E 030°14'0 0.0
2017-Mar-24 16:33N 59°53' E 030°14'0 0.0
2017-Mar-24 15:33N 59°53' E 030°14'0 0.0
2017-Mar-23 04:34N 59°53' E 030°14'0 0.0
2017-Mar-23 03:31N 59°53' E 030°14'0 0.0
2017-Mar-23 02:33N 59°53' E 030°14'0 0.0
2017-Mar-23 01:33N 59°53' E 030°14'0 0.0
2017-Mar-23 00:33N 59°53' E 030°14'0 0.0
2017-Mar-22 23:33N 59°53' E 030°14'0 0.0
2017-Mar-22 22:34N 59°53' E 030°14'0 0.0
2017-Mar-22 21:34N 59°53' E 030°14'0 0.0
2017-Mar-22 20:33N 59°53' E 030°14'0 0.0
2017-Mar-22 19:33N 59°53' E 030°14'0 0.0
2017-Mar-22 18:33N 59°53' E 030°14'0 0.0
2017-Mar-22 17:33N 59°53' E 030°14'0 0.0
2017-Mar-22 16:33N 59°53' E 030°14'0 0.0
2017-Mar-22 15:33N 59°53' E 030°14'0 0.0
2017-Mar-22 14:33N 59°53' E 030°14'0 0.0
2017-Mar-22 13:33N 59°53' E 030°14'0 0.0
2017-Mar-22 12:33N 59°53' E 030°14'0 0.0
2017-Mar-22 11:33N 59°53' E 030°14'0 0.0
2017-Mar-22 10:33N 59°53' E 030°14'1 1.4
2017-Mar-22 09:33N 59°53' E 030°12'0 0.4
2017-Mar-22 08:33N 59°53' E 030°12'1 1.0
2017-Mar-22 07:33N 59°53' E 030°14'0 0.0
2017-Mar-22 06:33N 59°53' E 030°14'0 0.0
2017-Mar-22 05:33N 59°53' E 030°14'0 0.0
2017-Mar-22 04:33N 59°53' E 030°14'0 0.0
2017-Mar-22 03:33N 59°53' E 030°14'0 0.0
2017-Mar-22 02:33N 59°53' E 030°14'0 0.0
2017-Mar-22 01:33N 59°53' E 030°14'0 0.0
2017-Mar-22 00:33N 59°53' E 030°14'0 0.0
2017-Mar-21 23:31N 59°53' E 030°14'0 0.0
2017-Mar-21 22:33N 59°53' E 030°14'0 0.0
2017-Mar-21 21:33N 59°53' E 030°14'0 0.0
2017-Mar-21 20:33N 59°53' E 030°14'0 0.0
2017-Mar-21 19:33N 59°53' E 030°14'0 0.4
2017-Mar-21 18:32N 59°53' E 030°14'0 0.4
2017-Mar-21 17:33N 59°53' E 030°14'0 0.0
2017-Mar-21 16:33N 59°53' E 030°14'0 0.0
2017-Mar-21 15:33N 59°53' E 030°14'1 0.8
2017-Mar-21 14:33N 59°53' E 030°13'1 0.6
2017-Mar-21 13:33N 59°52' E 030°12'1 1.0
2017-Mar-21 12:33N 59°53' E 030°14'0 0.0
2017-Mar-21 11:33N 59°53' E 030°14'0 0.0
2017-Mar-21 10:33N 59°53' E 030°14'0 0.0
2017-Mar-21 09:31N 59°53' E 030°14'0 0.0
2017-Mar-21 08:33N 59°53' E 030°14'0 0.0
2017-Mar-21 07:33N 59°53' E 030°14'0 0.0
2017-Mar-21 06:33N 59°53' E 030°14'0 0.0
2017-Mar-21 05:31N 59°53' E 030°14'1 1.1
2017-Mar-21 04:33N 59°53' E 030°13'1 0.5
2017-Mar-21 03:33N 59°53' E 030°12'1 1.2
2017-Mar-21 02:33N 59°53' E 030°14'0 0.0
2017-Mar-21 01:33N 59°53' E 030°14'0 0.0
2017-Mar-21 00:33N 59°53' E 030°14'0 0.0
2017-Mar-20 23:33N 59°53' E 030°14'0 0.0
2017-Mar-20 22:33N 59°53' E 030°14'0 0.0
2017-Mar-20 21:33N 59°53' E 030°14'0 0.0
2017-Mar-20 20:34N 59°53' E 030°14'0 0.0
2017-Mar-20 19:33N 59°53' E 030°14'0 0.0
2017-Mar-20 18:33N 59°53' E 030°14'0 0.0
2017-Mar-20 17:33N 59°53' E 030°14'0 0.0
2017-Mar-20 16:33N 59°53' E 030°14'0 0.0
2017-Mar-20 15:33N 59°53' E 030°14'0 0.0
2017-Mar-20 14:33N 59°53' E 030°14'0 0.0
2017-Mar-20 13:33N 59°53' E 030°14'0 0.0
2017-Mar-20 12:33N 59°53' E 030°14'0 0.0
2017-Mar-20 11:33N 59°53' E 030°14'0 0.0
2017-Mar-20 10:33N 59°53' E 030°14'0 0.0
2017-Mar-20 09:33N 59°53' E 030°14'0 0.0
2017-Mar-20 08:33N 59°53' E 030°14'0 0.0
2017-Mar-20 07:33N 59°53' E 030°14'0 0.0
2017-Mar-20 06:33N 59°53' E 030°14'0 0.0
2017-Mar-20 05:33N 59°53' E 030°14'0 0.0
2017-Mar-20 04:33N 59°53' E 030°14'0 0.0
2017-Mar-20 03:33N 59°53' E 030°14'0 0.0
2017-Mar-20 02:33N 59°53' E 030°14'0 0.0
2017-Mar-20 01:33N 59°53' E 030°14'0 0.0
2017-Mar-20 00:33N 59°53' E 030°14'0 0.0
2017-Mar-19 23:33N 59°53' E 030°14'0 0.0
2017-Mar-19 22:30N 59°53' E 030°14'0 0.0
2017-Mar-19 21:33N 59°53' E 030°14'0 0.0
2017-Mar-19 20:33N 59°53' E 030°14'0 0.0
2017-Mar-19 19:33N 59°53' E 030°14'0 0.0
2017-Mar-19 18:33N 59°53' E 030°14'0 0.0
2017-Mar-19 17:33N 59°53' E 030°14'0 0.0
2017-Mar-19 16:34N 59°53' E 030°14'0 0.0
2017-Mar-19 15:33N 59°53' E 030°14'0 0.0
2017-Mar-19 14:29N 59°53' E 030°14'0 0.0
2017-Mar-19 13:31N 59°53' E 030°14'0 0.0
2017-Mar-19 12:33N 59°53' E 030°14'0 0.0
2017-Mar-19 11:33N 59°53' E 030°14'0 0.0
2017-Mar-19 10:34N 59°53' E 030°14'0 0.0
2017-Mar-19 09:34N 59°53' E 030°14'0 0.0
2017-Mar-19 08:33N 59°53' E 030°14'0 0.0
2017-Mar-19 07:33N 59°53' E 030°14'0 0.0
2017-Mar-19 06:34N 59°53' E 030°14'0 0.0
2017-Mar-19 05:33N 59°53' E 030°14'0 0.0
2017-Mar-19 04:33N 59°53' E 030°14'0 0.0
2017-Mar-19 03:33N 59°53' E 030°14'0 0.0
2017-Mar-19 02:33N 59°53' E 030°14'0 0.0
2017-Mar-19 01:34N 59°53' E 030°14'0 0.0
2017-Mar-19 00:33N 59°53' E 030°14'0 0.0
2017-Mar-18 23:33N 59°53' E 030°14'0 0.0
2017-Mar-18 22:33N 59°53' E 030°14'0 0.0
2017-Mar-18 21:33N 59°53' E 030°14'0 0.0
2017-Mar-18 20:33N 59°53' E 030°14'0 0.0
2017-Mar-18 19:33N 59°53' E 030°14'0 0.0
2017-Mar-18 18:33N 59°53' E 030°14'0 0.0
2017-Mar-18 17:33N 59°53' E 030°14'0 0.0
2017-Mar-18 16:33N 59°53' E 030°14'0 0.0
2017-Mar-18 15:33N 59°53' E 030°14'0 0.0
2017-Mar-18 14:33N 59°53' E 030°14'0 0.0
2017-Mar-18 13:33N 59°53' E 030°14'0 0.0
2017-Mar-18 12:33N 59°53' E 030°14'0 0.0
2017-Mar-18 11:33N 59°53' E 030°14'0 0.0
2017-Mar-18 10:33N 59°53' E 030°14'0 0.0
2017-Mar-18 09:33N 59°53' E 030°14'0 0.0
2017-Mar-18 08:33N 59°53' E 030°14'0 0.0
2017-Mar-18 07:33N 59°53' E 030°14'0 0.0
2017-Mar-18 06:33N 59°53' E 030°14'0 0.0
2017-Mar-18 05:33N 59°53' E 030°14'0 0.0
2017-Mar-18 04:33N 59°53' E 030°14'0 0.0
2017-Mar-18 03:33N 59°53' E 030°14'0 0.0
2017-Mar-18 02:33N 59°53' E 030°14'0 0.0
2017-Mar-18 01:32N 59°53' E 030°14'0 0.0
2017-Mar-18 00:33N 59°53' E 030°14'0 0.0
2017-Mar-17 23:33N 59°53' E 030°14'0 0.0
2017-Mar-17 22:34N 59°53' E 030°14'0 0.0
2017-Mar-17 21:33N 59°53' E 030°14'0 0.0
2017-Mar-17 20:33N 59°53' E 030°14'0 0.0
2017-Mar-17 19:31N 59°53' E 030°14'0 0.0
2017-Mar-17 18:33N 59°53' E 030°14'0 0.0
2017-Mar-17 17:33N 59°53' E 030°14'0 0.0
2017-Mar-17 16:33N 59°53' E 030°14'0 0.0
2017-Mar-17 15:33N 59°53' E 030°14'0 0.0
2017-Mar-17 14:33N 59°53' E 030°14'0 0.0
2017-Mar-17 13:31N 59°53' E 030°14'0 0.0
2017-Mar-17 12:33N 59°53' E 030°14'0 0.0
2017-Mar-17 11:34N 59°53' E 030°14'0 0.0
2017-Mar-17 10:33N 59°53' E 030°14'  
Track history (hours):
 
Tides and Currents Weather Stations Pressure Air Temp Water Temp Dewpoint Dewpoint Depression Visibility Wind Speed Wind Dir Waves Ship Positions

Grifon 5 #-

Last reported at 2017-Mar-27 10:33 UTC. Time now 2017-Mar-27 10:45 UTC.
Position N 59°54' E 030°13'.

Length 25 m.

Type: Ship. MMSI: 273311070.

Date/timePositionNaut miles runAvg speedWind from/ knotsBaromVisibWave heightAir tempDewpointWater temp
2017-Mar-27 10:33N 59°54' E 030°13'1 1.2
2017-Mar-27 09:33N 59°53' E 030°14'0 0.0
2017-Mar-27 08:33N 59°53' E 030°14'1 1.0
2017-Mar-27 07:33N 59°53' E 030°12'0 0.4
2017-Mar-27 06:33N 59°53' E 030°12'1 1.3
2017-Mar-27 05:32N 59°53' E 030°14'0 0.0
2017-Mar-27 04:33N 59°53' E 030°14'0 0.0
2017-Mar-27 03:33N 59°53' E 030°14'0 0.0
2017-Mar-27 02:32N 59°53' E 030°14'0 0.0
2017-Mar-27 01:33N 59°53' E 030°14'0 0.0
2017-Mar-27 00:33N 59°53' E 030°14'0 0.0
2017-Mar-26 23:33N 59°53' E 030°14'1 0.9
2017-Mar-26 22:33N 59°53' E 030°13'0 0.4
2017-Mar-26 21:33N 59°53' E 030°12'1 1.1
2017-Mar-26 20:33N 59°53' E 030°14'0 0.0
2017-Mar-26 19:33N 59°53' E 030°14'0 0.0
2017-Mar-26 18:33N 59°53' E 030°14'0 0.0
2017-Mar-26 17:33N 59°53' E 030°14'0 0.0
2017-Mar-26 16:33N 59°53' E 030°14'0 0.0
2017-Mar-26 15:33N 59°53' E 030°14'0 0.0
2017-Mar-26 14:33N 59°53' E 030°14'0 0.0
2017-Mar-26 13:33N 59°53' E 030°14'0 0.0
2017-Mar-26 12:33N 59°53' E 030°14'0 0.0
2017-Mar-26 11:33N 59°53' E 030°14'0 0.0
2017-Mar-26 10:33N 59°53' E 030°14'0 0.0
2017-Mar-26 09:33N 59°53' E 030°14'0 0.0
2017-Mar-26 08:33N 59°53' E 030°14'1 1.3
2017-Mar-26 07:33N 59°53' E 030°12'1 0.6
2017-Mar-26 06:33N 59°53' E 030°11'2 1.6
2017-Mar-26 05:33N 59°53' E 030°14'0 0.0
2017-Mar-26 04:33N 59°53' E 030°14'0 0.0
2017-Mar-26 03:34N 59°53' E 030°14'0 0.0
2017-Mar-26 02:33N 59°53' E 030°14'1 1.4
2017-Mar-26 01:34N 59°53' E 030°11'1 1.4
2017-Mar-26 00:33N 59°53' E 030°14'0 0.0
2017-Mar-25 23:33N 59°53' E 030°14'0 0.0
2017-Mar-25 22:33N 59°53' E 030°14'1 1.0
2017-Mar-25 21:33N 59°53' E 030°13'1 1.0
2017-Mar-25 20:33N 59°52' E 030°12'1 1.0
2017-Mar-25 19:33N 59°53' E 030°14'0 0.0
2017-Mar-25 18:33N 59°53' E 030°14'0 0.0
2017-Mar-25 17:33N 59°53' E 030°14'0 0.0
2017-Mar-25 16:33N 59°53' E 030°14'0 0.0
2017-Mar-25 15:33N 59°53' E 030°14'0 0.0
2017-Mar-25 14:33N 59°53' E 030°14'0 0.0
2017-Mar-25 13:33N 59°53' E 030°14'0 0.0
2017-Mar-25 12:33N 59°53' E 030°14'0 0.0
2017-Mar-25 11:33N 59°53' E 030°14'2 1.5
2017-Mar-25 10:34N 59°53' E 030°11'1 0.6
2017-Mar-25 09:34N 59°52' E 030°12'1 0.9
2017-Mar-25 08:33N 59°53' E 030°11'2 1.6
2017-Mar-25 07:34N 59°53' E 030°14'0 0.0
2017-Mar-25 06:33N 59°53' E 030°14'0 0.0
2017-Mar-25 05:33N 59°53' E 030°14'0 0.0
2017-Mar-25 04:33N 59°53' E 030°14'0 0.0
2017-Mar-25 03:33N 59°53' E 030°14'0 0.0
2017-Mar-25 02:33N 59°53' E 030°14'0 0.0
2017-Mar-25 01:33N 59°53' E 030°14'0 0.0
2017-Mar-25 00:33N 59°53' E 030°14'0 0.0
2017-Mar-24 23:33N 59°53' E 030°14'0 0.1
2017-Mar-24 22:33N 59°53' E 030°14'1 1.2
2017-Mar-24 21:33N 59°52' E 030°12'1 1.3
2017-Mar-24 20:33N 59°53' E 030°14'0 0.0
2017-Mar-24 19:33N 59°53' E 030°14'0 0.0
2017-Mar-24 18:33N 59°53' E 030°14'0 0.0
2017-Mar-24 17:33N 59°53' E 030°14'0 0.0
2017-Mar-24 16:33N 59°53' E 030°14'0 0.0
2017-Mar-24 15:33N 59°53' E 030°14'0 0.0
2017-Mar-23 04:34N 59°53' E 030°14'0 0.0
2017-Mar-23 03:31N 59°53' E 030°14'0 0.0
2017-Mar-23 02:33N 59°53' E 030°14'0 0.0
2017-Mar-23 01:33N 59°53' E 030°14'0 0.0
2017-Mar-23 00:33N 59°53' E 030°14'0 0.0
2017-Mar-22 23:33N 59°53' E 030°14'0 0.0
2017-Mar-22 22:34N 59°53' E 030°14'0 0.0
2017-Mar-22 21:34N 59°53' E 030°14'0 0.0
2017-Mar-22 20:33N 59°53' E 030°14'0 0.0
2017-Mar-22 19:33N 59°53' E 030°14'0 0.0
2017-Mar-22 18:33N 59°53' E 030°14'0 0.0
2017-Mar-22 17:33N 59°53' E 030°14'0 0.0
2017-Mar-22 16:33N 59°53' E 030°14'0 0.0
2017-Mar-22 15:33N 59°53' E 030°14'0 0.0
2017-Mar-22 14:33N 59°53' E 030°14'0 0.0
2017-Mar-22 13:33N 59°53' E 030°14'0 0.0
2017-Mar-22 12:33N 59°53' E 030°14'0 0.0
2017-Mar-22 11:33N 59°53' E 030°14'0 0.0
2017-Mar-22 10:33N 59°53' E 030°14'1 1.4
2017-Mar-22 09:33N 59°53' E 030°12'0 0.4
2017-Mar-22 08:33N 59°53' E 030°12'1 1.0
2017-Mar-22 07:33N 59°53' E 030°14'0 0.0
2017-Mar-22 06:33N 59°53' E 030°14'0 0.0
2017-Mar-22 05:33N 59°53' E 030°14'0 0.0
2017-Mar-22 04:33N 59°53' E 030°14'0 0.0
2017-Mar-22 03:33N 59°53' E 030°14'0 0.0
2017-Mar-22 02:33N 59°53' E 030°14'0 0.0
2017-Mar-22 01:33N 59°53' E 030°14'0 0.0
2017-Mar-22 00:33N 59°53' E 030°14'0 0.0
2017-Mar-21 23:31N 59°53' E 030°14'0 0.0
2017-Mar-21 22:33N 59°53' E 030°14'0 0.0
2017-Mar-21 21:33N 59°53' E 030°14'0 0.0
2017-Mar-21 20:33N 59°53' E 030°14'0 0.0
2017-Mar-21 19:33N 59°53' E 030°14'0 0.4
2017-Mar-21 18:32N 59°53' E 030°14'0 0.4
2017-Mar-21 17:33N 59°53' E 030°14'0 0.0
2017-Mar-21 16:33N 59°53' E 030°14'0 0.0
2017-Mar-21 15:33N 59°53' E 030°14'1 0.8
2017-Mar-21 14:33N 59°53' E 030°13'1 0.6
2017-Mar-21 13:33N 59°52' E 030°12'1 1.0
2017-Mar-21 12:33N 59°53' E 030°14'0 0.0
2017-Mar-21 11:33N 59°53' E 030°14'0 0.0
2017-Mar-21 10:33N 59°53' E 030°14'0 0.0
2017-Mar-21 09:31N 59°53' E 030°14'0 0.0
2017-Mar-21 08:33N 59°53' E 030°14'0 0.0
2017-Mar-21 07:33N 59°53' E 030°14'0 0.0
2017-Mar-21 06:33N 59°53' E 030°14'0 0.0
2017-Mar-21 05:31N 59°53' E 030°14'1 1.1
2017-Mar-21 04:33N 59°53' E 030°13'1 0.5
2017-Mar-21 03:33N 59°53' E 030°12'1 1.2
2017-Mar-21 02:33N 59°53' E 030°14'0 0.0
2017-Mar-21 01:33N 59°53' E 030°14'0 0.0
2017-Mar-21 00:33N 59°53' E 030°14'0 0.0
2017-Mar-20 23:33N 59°53' E 030°14'0 0.0
2017-Mar-20 22:33N 59°53' E 030°14'0 0.0
2017-Mar-20 21:33N 59°53' E 030°14'0 0.0
2017-Mar-20 20:34N 59°53' E 030°14'0 0.0
2017-Mar-20 19:33N 59°53' E 030°14'0 0.0
2017-Mar-20 18:33N 59°53' E 030°14'0 0.0
2017-Mar-20 17:33N 59°53' E 030°14'0 0.0
2017-Mar-20 16:33N 59°53' E 030°14'0 0.0
2017-Mar-20 15:33N 59°53' E 030°14'0 0.0
2017-Mar-20 14:33N 59°53' E 030°14'0 0.0
2017-Mar-20 13:33N 59°53' E 030°14'0 0.0
2017-Mar-20 12:33N 59°53' E 030°14'0 0.0
2017-Mar-20 11:33N 59°53' E 030°14'0 0.0
2017-Mar-20 10:33N 59°53' E 030°14'0 0.0
2017-Mar-20 09:33N 59°53' E 030°14'0 0.0
2017-Mar-20 08:33N 59°53' E 030°14'0 0.0
2017-Mar-20 07:33N 59°53' E 030°14'0 0.0
2017-Mar-20 06:33N 59°53' E 030°14'0 0.0
2017-Mar-20 05:33N 59°53' E 030°14'0 0.0
2017-Mar-20 04:33N 59°53' E 030°14'0 0.0
2017-Mar-20 03:33N 59°53' E 030°14'0 0.0
2017-Mar-20 02:33N 59°53' E 030°14'0 0.0
2017-Mar-20 01:33N 59°53' E 030°14'0 0.0
2017-Mar-20 00:33N 59°53' E 030°14'0 0.0
2017-Mar-19 23:33N 59°53' E 030°14'0 0.0
2017-Mar-19 22:30N 59°53' E 030°14'0 0.0
2017-Mar-19 21:33N 59°53' E 030°14'0 0.0
2017-Mar-19 20:33N 59°53' E 030°14'0 0.0
2017-Mar-19 19:33N 59°53' E 030°14'0 0.0
2017-Mar-19 18:33N 59°53' E 030°14'0 0.0
2017-Mar-19 17:33N 59°53' E 030°14'0 0.0
2017-Mar-19 16:34N 59°53' E 030°14'0 0.0
2017-Mar-19 15:33N 59°53' E 030°14'0 0.0
2017-Mar-19 14:29N 59°53' E 030°14'0 0.0
2017-Mar-19 13:31N 59°53' E 030°14'0 0.0
2017-Mar-19 12:33N 59°53' E 030°14'0 0.0
2017-Mar-19 11:33N 59°53' E 030°14'0 0.0
2017-Mar-19 10:34N 59°53' E 030°14'0 0.0
2017-Mar-19 09:34N 59°53' E 030°14'0 0.0
2017-Mar-19 08:33N 59°53' E 030°14'0 0.0
2017-Mar-19 07:33N 59°53' E 030°14'0 0.0
2017-Mar-19 06:34N 59°53' E 030°14'0 0.0
2017-Mar-19 05:33N 59°53' E 030°14'0 0.0
2017-Mar-19 04:33N 59°53' E 030°14'0 0.0
2017-Mar-19 03:33N 59°53' E 030°14'0 0.0
2017-Mar-19 02:33N 59°53' E 030°14'0 0.0
2017-Mar-19 01:34N 59°53' E 030°14'0 0.0
2017-Mar-19 00:33N 59°53' E 030°14'0 0.0
2017-Mar-18 23:33N 59°53' E 030°14'0 0.0
2017-Mar-18 22:33N 59°53' E 030°14'0 0.0
2017-Mar-18 21:33N 59°53' E 030°14'0 0.0
2017-Mar-18 20:33N 59°53' E 030°14'0 0.0
2017-Mar-18 19:33N 59°53' E 030°14'0 0.0
2017-Mar-18 18:33N 59°53' E 030°14'0 0.0
2017-Mar-18 17:33N 59°53' E 030°14'0 0.0
2017-Mar-18 16:33N 59°53' E 030°14'0 0.0
2017-Mar-18 15:33N 59°53' E 030°14'0 0.0
2017-Mar-18 14:33N 59°53' E 030°14'0 0.0
2017-Mar-18 13:33N 59°53' E 030°14'0 0.0
2017-Mar-18 12:33N 59°53' E 030°14'0 0.0
2017-Mar-18 11:33N 59°53' E 030°14'0 0.0
2017-Mar-18 10:33N 59°53' E 030°14'0 0.0
2017-Mar-18 09:33N 59°53' E 030°14'0 0.0
2017-Mar-18 08:33N 59°53' E 030°14'0 0.0
2017-Mar-18 07:33N 59°53' E 030°14'0 0.0
2017-Mar-18 06:33N 59°53' E 030°14'0 0.0
2017-Mar-18 05:33N 59°53' E 030°14'0 0.0
2017-Mar-18 04:33N 59°53' E 030°14'0 0.0
2017-Mar-18 03:33N 59°53' E 030°14'0 0.0
2017-Mar-18 02:33N 59°53' E 030°14'0 0.0
2017-Mar-18 01:32N 59°53' E 030°14'0 0.0
2017-Mar-18 00:33N 59°53' E 030°14'0 0.0
2017-Mar-17 23:33N 59°53' E 030°14'0 0.0
2017-Mar-17 22:34N 59°53' E 030°14'0 0.0
2017-Mar-17 21:33N 59°53' E 030°14'0 0.0
2017-Mar-17 20:33N 59°53' E 030°14'0 0.0
2017-Mar-17 19:31N 59°53' E 030°14'0 0.0
2017-Mar-17 18:33N 59°53' E 030°14'0 0.0
2017-Mar-17 17:33N 59°53' E 030°14'0 0.0
2017-Mar-17 16:33N 59°53' E 030°14'0 0.0
2017-Mar-17 15:33N 59°53' E 030°14'0 0.0
2017-Mar-17 14:33N 59°53' E 030°14'0 0.0
2017-Mar-17 13:31N 59°53' E 030°14'0 0.0
2017-Mar-17 12:33N 59°53' E 030°14'0 0.0
2017-Mar-17 11:34N 59°53' E 030°14'0 0.0
2017-Mar-17 10:33N 59°53' E 030°14'  

Dump ship's entire track history